Dura Bulk — 3ETF7 — position and weather

sailwx.info

Track history (hours):
 
Tides and Currents Weather Stations Pressure Air Temp Water Temp Dewpoint Dewpoint Depression Visibility Wind Speed Wind Dir Waves Ship Positions

Dura Bulk

Last reported at 2018-Jan-21 12:12 UTC. Time now 2018-Jan-21 18:52 UTC.
Position N 30°06' W 013°51'.

Length 89 m; draft 6.1 m.

Type: Cargo ship. MMSI: 370545000.

Date/timePositionNaut miles runAvg speedWind from/ knotsBaromVisibWave heightAir tempDewpointWater temp
2018-Jan-21 12:12N 30°06' W 013°51'6 6.9
2018-Jan-21 11:17N 30°10' W 013°45'42 8.0
2018-Jan-21 06:01N 30°39' W 013°09'3 9.2
2018-Jan-21 05:44N 30°41' W 013°07'  
2018-Jan-18 22:19N 35°58' W 005°34'3 8.2
2018-Jan-18 22:00N 35°59' W 005°31'4 7.9
2018-Jan-18 21:30N 36°00' W 005°27'4 8.6
2018-Jan-18 21:00N 36°01' W 005°22'4 8.0
2018-Jan-18 20:30N 36°03' W 005°17'5 9.2
2018-Jan-18 20:00N 36°05' W 005°12'5 9.7
2018-Jan-18 19:29N 36°07' W 005°07'5 9.6
2018-Jan-18 18:55N 36°10' W 005°01'  
2018-Jan-12 14:59N 28°08' W 015°24'0 0.0
2018-Jan-12 14:29N 28°08' W 015°24'0 0.0
2018-Jan-12 13:50N 28°08' W 015°24'0 0.0
2018-Jan-12 13:20N 28°08' W 015°24'0 0.0
2018-Jan-12 12:50N 28°08' W 015°24'0 0.0
2018-Jan-12 12:20N 28°08' W 015°24'0 0.0
2018-Jan-12 11:50N 28°08' W 015°24'0 0.0
2018-Jan-12 11:23N 28°08' W 015°24'0 0.0
2018-Jan-12 10:53N 28°08' W 015°24'0 0.0
2018-Jan-12 10:23N 28°08' W 015°24'0 0.0
2018-Jan-12 09:53N 28°08' W 015°24'0 0.0
2018-Jan-12 09:23N 28°08' W 015°24'0 0.0
2018-Jan-12 08:53N 28°08' W 015°24'0 0.0
2018-Jan-12 08:23N 28°08' W 015°24'0 0.0
2018-Jan-12 07:53N 28°08' W 015°24'0 0.0
2018-Jan-12 07:23N 28°08' W 015°24'0 0.0
2018-Jan-12 06:56N 28°08' W 015°24'0 0.0
2018-Jan-12 06:26N 28°08' W 015°24'0 0.0
2018-Jan-12 05:56N 28°08' W 015°24'0 0.0
2018-Jan-12 05:26N 28°08' W 015°24'0 0.0
2018-Jan-12 04:56N 28°08' W 015°24'0 0.0
2018-Jan-12 04:26N 28°08' W 015°24'0 0.0
2018-Jan-12 03:56N 28°08' W 015°24'0 0.0
2018-Jan-12 03:26N 28°08' W 015°24'0 0.0
2018-Jan-12 02:55N 28°08' W 015°24'0 0.0
2018-Jan-12 02:28N 28°08' W 015°24'0 0.0
2018-Jan-12 01:58N 28°08' W 015°24'0 0.0
2018-Jan-12 01:28N 28°08' W 015°24'0 0.0
2018-Jan-12 00:58N 28°08' W 015°24'0 0.0
2018-Jan-12 00:28N 28°08' W 015°24'0 0.0
2018-Jan-11 23:58N 28°08' W 015°24'0 0.0
2018-Jan-11 23:28N 28°08' W 015°24'0 0.0
2018-Jan-11 22:58N 28°08' W 015°24'0 0.0
2018-Jan-11 22:28N 28°08' W 015°24'0 0.0
2018-Jan-11 21:58N 28°08' W 015°24'0 0.0
2018-Jan-11 21:28N 28°08' W 015°24'0 0.0
2018-Jan-11 20:58N 28°08' W 015°24'0 0.0
2018-Jan-11 20:28N 28°08' W 015°24'0 0.0
2018-Jan-11 19:58N 28°08' W 015°24'0 0.0
2018-Jan-11 19:28N 28°08' W 015°24'0 0.0
2018-Jan-11 18:58N 28°08' W 015°24'0 0.0
2018-Jan-11 18:28N 28°08' W 015°24'0 0.0
2018-Jan-11 17:58N 28°08' W 015°24'0 0.0
2018-Jan-11 17:28N 28°08' W 015°24'0 0.0
2018-Jan-11 16:58N 28°08' W 015°24'0 0.0
2018-Jan-11 16:19N 28°08' W 015°24'0 0.0
2018-Jan-11 15:58N 28°08' W 015°24'0 0.0
2018-Jan-11 15:28N 28°08' W 015°24'0 0.0
2018-Jan-11 14:58N 28°08' W 015°24'0 0.0
2018-Jan-11 14:19N 28°08' W 015°24'0 0.0
2018-Jan-11 13:49N 28°08' W 015°24'0 0.0
2018-Jan-11 13:19N 28°08' W 015°24'0 0.0
2018-Jan-11 12:52N 28°08' W 015°24'0 0.0
2018-Jan-11 12:22N 28°08' W 015°24'  
Track history (hours):
 
Tides and Currents Weather Stations Pressure Air Temp Water Temp Dewpoint Dewpoint Depression Visibility Wind Speed Wind Dir Waves Ship Positions

Dura Bulk

Last reported at 2018-Jan-21 12:12 UTC. Time now 2018-Jan-21 18:52 UTC.
Position N 30°06' W 013°51'.

Length 89 m; draft 6.1 m.

Type: Cargo ship. MMSI: 370545000.

Date/timePositionNaut miles runAvg speedWind from/ knotsBaromVisibWave heightAir tempDewpointWater temp
2018-Jan-21 12:12N 30°06' W 013°51'6 6.9
2018-Jan-21 11:17N 30°10' W 013°45'42 8.0
2018-Jan-21 06:01N 30°39' W 013°09'3 9.2
2018-Jan-21 05:44N 30°41' W 013°07'  
2018-Jan-18 22:19N 35°58' W 005°34'3 8.2
2018-Jan-18 22:00N 35°59' W 005°31'4 7.9
2018-Jan-18 21:30N 36°00' W 005°27'4 8.6
2018-Jan-18 21:00N 36°01' W 005°22'4 8.0
2018-Jan-18 20:30N 36°03' W 005°17'5 9.2
2018-Jan-18 20:00N 36°05' W 005°12'5 9.7
2018-Jan-18 19:29N 36°07' W 005°07'5 9.6
2018-Jan-18 18:55N 36°10' W 005°01'  
2018-Jan-12 14:59N 28°08' W 015°24'0 0.0
2018-Jan-12 14:29N 28°08' W 015°24'0 0.0
2018-Jan-12 13:50N 28°08' W 015°24'0 0.0
2018-Jan-12 13:20N 28°08' W 015°24'0 0.0
2018-Jan-12 12:50N 28°08' W 015°24'0 0.0
2018-Jan-12 12:20N 28°08' W 015°24'0 0.0
2018-Jan-12 11:50N 28°08' W 015°24'0 0.0
2018-Jan-12 11:23N 28°08' W 015°24'0 0.0
2018-Jan-12 10:53N 28°08' W 015°24'0 0.0
2018-Jan-12 10:23N 28°08' W 015°24'0 0.0
2018-Jan-12 09:53N 28°08' W 015°24'0 0.0
2018-Jan-12 09:23N 28°08' W 015°24'0 0.0
2018-Jan-12 08:53N 28°08' W 015°24'0 0.0
2018-Jan-12 08:23N 28°08' W 015°24'0 0.0
2018-Jan-12 07:53N 28°08' W 015°24'0 0.0
2018-Jan-12 07:23N 28°08' W 015°24'0 0.0
2018-Jan-12 06:56N 28°08' W 015°24'0 0.0
2018-Jan-12 06:26N 28°08' W 015°24'0 0.0
2018-Jan-12 05:56N 28°08' W 015°24'0 0.0
2018-Jan-12 05:26N 28°08' W 015°24'0 0.0
2018-Jan-12 04:56N 28°08' W 015°24'0 0.0
2018-Jan-12 04:26N 28°08' W 015°24'0 0.0
2018-Jan-12 03:56N 28°08' W 015°24'0 0.0
2018-Jan-12 03:26N 28°08' W 015°24'0 0.0
2018-Jan-12 02:55N 28°08' W 015°24'0 0.0
2018-Jan-12 02:28N 28°08' W 015°24'0 0.0
2018-Jan-12 01:58N 28°08' W 015°24'0 0.0
2018-Jan-12 01:28N 28°08' W 015°24'0 0.0
2018-Jan-12 00:58N 28°08' W 015°24'0 0.0
2018-Jan-12 00:28N 28°08' W 015°24'0 0.0
2018-Jan-11 23:58N 28°08' W 015°24'0 0.0
2018-Jan-11 23:28N 28°08' W 015°24'0 0.0
2018-Jan-11 22:58N 28°08' W 015°24'0 0.0
2018-Jan-11 22:28N 28°08' W 015°24'0 0.0
2018-Jan-11 21:58N 28°08' W 015°24'0 0.0
2018-Jan-11 21:28N 28°08' W 015°24'0 0.0
2018-Jan-11 20:58N 28°08' W 015°24'0 0.0
2018-Jan-11 20:28N 28°08' W 015°24'0 0.0
2018-Jan-11 19:58N 28°08' W 015°24'0 0.0
2018-Jan-11 19:28N 28°08' W 015°24'0 0.0
2018-Jan-11 18:58N 28°08' W 015°24'0 0.0
2018-Jan-11 18:28N 28°08' W 015°24'0 0.0
2018-Jan-11 17:58N 28°08' W 015°24'0 0.0
2018-Jan-11 17:28N 28°08' W 015°24'0 0.0
2018-Jan-11 16:58N 28°08' W 015°24'0 0.0
2018-Jan-11 16:19N 28°08' W 015°24'0 0.0
2018-Jan-11 15:58N 28°08' W 015°24'0 0.0
2018-Jan-11 15:28N 28°08' W 015°24'0 0.0
2018-Jan-11 14:58N 28°08' W 015°24'0 0.0
2018-Jan-11 14:19N 28°08' W 015°24'0 0.0
2018-Jan-11 13:49N 28°08' W 015°24'0 0.0
2018-Jan-11 13:19N 28°08' W 015°24'0 0.0
2018-Jan-11 12:52N 28°08' W 015°24'0 0.0
2018-Jan-11 12:22N 28°08' W 015°24'  

Dump ship's entire track history